Time;durP1;ratioP1;P1;durP2;ratioP2;P2;SDS_P1;SDS_P2;PMS_P1;PMS_P2;Temp;Humidity;BMP_temperature;BMP_pressure;BME280_temperature;BME280_humidity;BME280_pressure;Samples;Min_cycle;Max_cycle;Signal;HPM_P1;HPM_P2
2020/12/19 00:00:06;;;;;;;26.85;8.35;;;3.60;99.90;;;4.32;86.44;101823.78;5072051;28;20246;-68
2020/12/19 00:02:33;;;;;;;21.35;7.10;;;3.60;99.90;;;4.32;86.50;101824.63;5072337;28;20207;-69
2020/12/19 00:04:59;;;;;;;21.95;7.88;;;3.50;99.90;;;4.29;86.33;101823.75;5072162;28;20225;-69
2020/12/19 00:07:25;;;;;;;28.10;8.77;;;3.50;99.90;;;4.24;86.27;101812.50;5071951;28;20552;-69
2020/12/19 00:09:51;;;;;;;24.20;8.30;;;3.50;99.90;;;4.23;86.36;101828.91;5071760;28;20562;-69
2020/12/19 00:12:22;;;;;;;20.60;7.13;;;3.50;99.90;;;4.22;86.36;101820.25;5069414;28;20212;-68
2020/12/19 00:14:48;;;;;;;21.73;8.07;;;3.50;99.90;;;4.20;86.36;101819.41;5071946;28;20192;-69
2020/12/19 00:17:14;;;;;;;26.83;8.13;;;3.50;99.90;;;4.19;86.41;101811.59;5071882;28;20184;-69
2020/12/19 00:19:40;;;;;;;21.43;7.50;;;3.50;99.90;;;4.15;86.39;101809.88;5070202;28;20195;-68
2020/12/19 00:22:07;;;;;;;26.90;8.87;;;3.40;99.90;;;4.13;86.34;101814.16;5087225;28;20246;-69
2020/12/19 00:24:34;;;;;;;27.30;8.60;;;3.40;99.90;;;4.10;86.73;101807.25;5071709;28;20187;-69
2020/12/19 00:27:00;;;;;;;24.40;7.90;;;3.30;99.90;;;4.07;86.82;101811.53;5087032;28;20213;-69
2020/12/19 00:29:27;;;;;;;25.10;8.38;;;3.30;99.90;;;4.05;86.85;101796.00;5070140;28;20203;-69
2020/12/19 00:31:53;;;;;;;24.50;7.40;;;3.30;99.90;;;4.04;86.92;101812.38;5071635;28;20211;-69
2020/12/19 00:34:20;;;;;;;23.77;7.75;;;3.30;99.90;;;4.06;87.03;101815.84;5071744;28;20333;-69
2020/12/19 00:36:46;;;;;;;26.13;9.18;;;3.30;99.90;;;4.06;86.74;101807.19;5071651;28;20184;-69
2020/12/19 00:39:12;;;;;;;27.27;9.03;;;3.30;99.90;;;4.04;87.00;101804.59;5071320;28;20207;-69
2020/12/19 00:41:38;;;;;;;24.80;8.00;;;3.30;99.90;;;4.03;86.65;101810.66;5069873;28;20220;-69
2020/12/19 00:44:04;;;;;;;24.42;8.73;;;3.30;99.90;;;4.03;86.88;101805.47;5071165;28;20230;-68
2020/12/19 00:46:31;;;;;;;24.90;8.37;;;3.20;99.90;;;4.02;86.77;101806.31;5071434;28;20657;-69
2020/12/19 00:48:58;;;;;;;25.33;8.23;;;3.30;99.90;;;4.02;86.88;101803.72;5069937;28;20207;-68
2020/12/19 00:51:24;;;;;;;23.03;8.13;;;3.20;99.90;;;3.99;86.84;101802.84;5070841;28;20204;-68
2020/12/19 00:53:51;;;;;;;23.67;8.15;;;3.20;99.90;;;3.96;87.07;101800.22;5071373;28;20608;-68
2020/12/19 00:56:20;;;;;;;22.03;8.80;;;3.20;99.90;;;3.94;87.15;101794.16;5071583;28;20195;-69
2020/12/19 00:58:46;;;;;;;24.15;8.60;;;3.20;99.90;;;3.94;87.29;101795.03;5071074;28;20184;-69
2020/12/19 01:01:14;;;;;;;23.60;8.43;;;3.20;99.90;;;3.93;87.31;101788.16;5071475;28;20222;-69
2020/12/19 01:03:42;;;;;;;23.60;8.80;;;3.20;99.90;;;3.94;87.33;101789.88;5071662;28;20211;-68
2020/12/19 01:06:09;;;;;;;24.67;8.23;;;3.20;99.90;;;3.93;87.29;101782.97;5070445;28;20286;-68
2020/12/19 01:08:35;;;;;;;28.17;9.00;;;3.20;99.90;;;3.93;87.17;101787.28;5069779;28;20220;-68
2020/12/19 01:11:02;;;;;;;23.33;8.48;;;3.10;99.90;;;3.92;87.16;101790.72;5086620;28;20212;-69
2020/12/19 01:13:28;;;;;;;25.10;7.50;;;3.10;99.90;;;3.91;87.28;101787.25;5069397;28;20196;-68
2020/12/19 01:15:54;;;;;;;21.13;7.93;;;3.10;99.90;;;3.91;87.41;101792.44;5070407;28;20198;-69
2020/12/19 01:18:20;;;;;;;23.50;9.17;;;3.10;99.90;;;3.93;87.24;101793.31;5070684;28;20203;-68
2020/12/19 01:20:48;;;;;;;28.23;8.77;;;3.20;99.90;;;3.94;87.53;101795.03;5071006;28;20215;-69
2020/12/19 01:23:14;;;;;;;23.30;8.13;;;3.20;99.90;;;3.97;87.17;101792.47;5072206;28;20559;-68
2020/12/19 01:25:40;;;;;;;25.35;8.27;;;3.20;99.90;;;4.00;87.24;101789.94;5071109;28;20188;-68
2020/12/19 01:28:06;;;;;;;27.60;8.07;;;3.20;99.90;;;4.02;87.20;101787.34;5070842;28;20211;-67
2020/12/19 01:30:32;;;;;;;26.93;8.97;;;3.20;99.90;;;4.02;86.88;101788.19;5071027;28;20265;-68
2020/12/19 01:32:59;;;;;;;25.60;8.60;;;3.20;99.90;;;4.01;86.95;101796.81;5070778;28;20238;-68
2020/12/19 01:35:25;;;;;;;22.37;8.47;;;3.20;99.90;;;4.03;87.12;101787.34;5070883;28;20191;-68
2020/12/19 01:37:52;;;;;;;25.13;8.70;;;3.20;99.90;;;4.04;86.96;101781.31;5070051;28;20197;-68
2020/12/19 01:40:18;;;;;;;23.13;8.43;;;3.20;99.90;;;4.02;86.86;101782.16;5070607;28;20199;-68
2020/12/19 01:42:44;;;;;;;22.30;8.60;;;3.20;99.90;;;4.02;86.75;101777.84;5071224;28;20738;-68
2020/12/19 01:45:11;;;;;;;23.20;8.40;;;3.20;99.90;;;4.02;86.72;101777.84;5071639;28;20193;-68
2020/12/19 01:47:37;;;;;;;22.87;8.23;;;3.20;99.90;;;4.01;86.58;101772.66;5071177;28;20224;-69
2020/12/19 01:50:07;;;;;;;23.63;8.70;;;3.20;99.90;;;3.96;86.92;101767.44;5070975;28;20184;-68
2020/12/19 01:52:36;;;;;;;24.80;8.03;;;3.20;99.90;;;3.96;86.59;101772.63;5071888;28;20259;-68
2020/12/19 01:55:04;;;;;;;21.60;8.70;;;3.10;99.90;;;3.91;86.82;101763.97;5070024;28;20192;-68
2020/12/19 01:57:32;;;;;;;23.63;8.93;;;3.10;99.90;;;3.90;86.97;101766.56;5070594;28;20188;-68
2020/12/19 01:59:59;;;;;;;24.17;7.93;;;3.10;99.90;;;3.88;86.86;101763.97;5069252;28;20551;-68
2020/12/19 02:02:26;;;;;;;24.40;7.70;;;3.10;99.90;;;3.87;87.01;101764.78;5070436;28;20235;-68
2020/12/19 02:04:54;;;;;;;23.23;7.77;;;3.10;99.90;;;3.86;87.34;101763.06;5070607;28;20185;-68
2020/12/19 02:07:23;;;;;;;22.55;7.65;;;3.10;99.90;;;3.85;87.04;101758.78;5070122;28;20676;-68
2020/12/19 02:09:51;;;;;;;21.50;7.53;;;3.10;99.90;;;3.86;87.27;101755.31;5070257;28;20189;-69
2020/12/19 02:12:18;;;;;;;21.83;7.85;;;3.10;99.90;;;3.83;87.08;101756.13;5085946;28;20318;-68
2020/12/19 02:14:45;;;;;;;22.83;8.35;;;3.00;99.90;;;3.83;86.88;101760.47;5068624;28;20599;-68
2020/12/19 02:17:13;;;;;;;22.52;7.70;;;3.00;99.90;;;3.85;87.50;101751.84;5070420;28;20189;-68
2020/12/19 02:19:39;;;;;;;20.97;8.10;;;3.00;99.90;;;3.87;87.33;101756.19;5074018;28;20188;-68
2020/12/19 02:22:08;;;;;;;22.10;7.40;;;3.00;99.90;;;3.83;87.34;101755.28;5074062;28;20200;-68
2020/12/19 02:24:35;;;;;;;23.33;8.07;;;3.00;99.90;;;3.83;87.44;101750.97;5074120;28;20191;-68
2020/12/19 02:27:02;;;;;;;26.00;8.90;;;3.00;99.90;;;3.81;87.38;101747.53;5073929;28;20200;-68
2020/12/19 02:29:31;;;;;;;25.53;7.57;;;3.00;99.90;;;3.85;87.52;101748.41;5072772;28;20207;-68
2020/12/19 02:32:00;;;;;;;24.47;8.63;;;3.00;99.90;;;3.87;87.69;101749.25;5074117;28;20216;-68
2020/12/19 02:34:27;;;;;;;27.13;8.73;;;3.10;99.90;;;3.90;87.57;101745.84;5073917;28;20188;-68
2020/12/19 02:36:54;;;;;;;23.17;7.93;;;3.10;99.90;;;3.92;87.43;101746.72;5074018;28;20211;-68
2020/12/19 02:39:20;;;;;;;26.37;9.03;;;3.10;99.90;;;3.92;87.31;101739.81;5072313;28;20192;-68
2020/12/19 02:41:49;;;;;;;22.60;8.63;;;3.10;99.90;;;3.91;87.30;101738.09;5073902;28;20200;-68
2020/12/19 02:44:18;;;;;;;25.08;8.20;;;3.10;99.90;;;3.88;86.93;101732.91;5069266;28;20192;-68
2020/12/19 02:46:45;;;;;;;22.77;7.97;;;3.10;99.90;;;3.86;87.36;101729.44;5070777;28;20184;-67
2020/12/19 02:49:12;;;;;;;22.10;7.77;;;3.10;99.90;;;3.87;87.02;101725.13;5088856;28;20559;-68
2020/12/19 02:51:39;;;;;;;19.57;7.50;;;3.10;99.90;;;3.87;87.14;101720.78;5073852;28;20212;-68
2020/12/19 02:54:05;;;;;;;19.70;6.73;;;3.10;99.90;;;3.85;87.42;101718.19;5073896;28;20187;-67
2020/12/19 02:56:32;;;;;;;24.87;8.03;;;3.10;99.90;;;3.83;87.41;101719.06;5071633;28;20199;-68
2020/12/19 02:58:59;;;;;;;26.60;8.20;;;3.00;99.90;;;3.80;87.13;101711.28;5073157;28;20196;-68
2020/12/19 03:01:29;;;;;;;26.83;8.47;;;3.00;99.90;;;3.79;87.44;101704.34;5073264;28;20219;-68
2020/12/19 03:03:56;;;;;;;24.27;7.22;;;3.00;99.90;;;3.77;87.53;101709.53;5073203;28;20679;-68
2020/12/19 03:06:23;;;;;;;24.60;8.47;;;3.00;99.90;;;3.74;87.55;101708.63;5073171;28;20184;-68
2020/12/19 03:08:49;;;;;;;23.02;8.35;;;3.00;99.90;;;3.73;87.77;101701.75;5073190;28;20208;-68
2020/12/19 03:11:16;;;;;;;24.17;8.50;;;2.90;99.90;;;3.75;87.82;101705.22;5073016;28;20212;-69
2020/12/19 03:13:43;;;;;;;21.70;7.85;;;3.00;99.90;;;3.74;87.55;101703.47;5073061;28;20298;-68
2020/12/19 03:16:10;;;;;;;21.83;7.60;;;3.00;99.90;;;3.69;87.79;101697.41;5072288;28;20188;-68
2020/12/19 03:18:36;;;;;;;21.70;7.30;;;2.90;99.90;;;3.69;87.70;101707.75;5072638;28;20660;-68
2020/12/19 03:21:03;;;;;;;20.70;7.97;;;2.90;99.90;;;3.69;88.13;101702.56;5073022;28;20204;-68
2020/12/19 03:23:29;;;;;;;21.35;7.78;;;2.90;99.90;;;3.69;87.98;101690.50;5073128;28;20184;-68
2020/12/19 03:25:55;;;;;;;24.67;7.93;;;2.90;99.90;;;3.68;87.76;101693.09;5072850;28;20192;-68
2020/12/19 03:28:21;;;;;;;27.13;8.07;;;2.90;99.90;;;3.66;88.01;101687.91;5072466;28;20219;-68
2020/12/19 03:30:47;;;;;;;20.70;7.60;;;2.90;99.90;;;3.68;88.04;101677.56;5070691;28;20212;-68
2020/12/19 03:33:15;;;;;;;23.70;7.93;;;2.90;99.90;;;3.71;87.97;101682.75;5072717;28;20184;-68
2020/12/19 03:35:41;;;;;;;23.00;7.67;;;2.90;99.90;;;3.70;87.89;101691.38;5072850;28;20188;-68
2020/12/19 03:38:08;;;;;;;20.70;7.80;;;2.90;99.90;;;3.69;88.09;101684.47;5072627;28;20188;-67
2020/12/19 03:40:35;;;;;;;23.77;7.97;;;2.90;99.90;;;3.68;87.91;101677.56;5072454;28;20337;-68
2020/12/19 03:43:01;;;;;;;21.10;7.67;;;2.90;99.90;;;3.67;87.90;101678.41;5072570;28;20185;-68
2020/12/19 03:45:27;;;;;;;21.73;7.53;;;2.90;99.90;;;3.68;88.02;101673.22;5072253;28;20539;-68
2020/12/19 03:47:54;;;;;;;23.43;7.90;;;2.90;99.90;;;3.67;87.95;101686.16;5070644;28;20223;-69
2020/12/19 03:50:21;;;;;;;21.47;7.50;;;2.90;99.90;;;3.67;87.98;101688.75;5072076;28;20196;-68
2020/12/19 03:52:47;;;;;;;22.93;8.30;;;2.90;99.90;;;3.67;87.95;101686.16;5072307;28;20235;-68
2020/12/19 03:55:14;;;;;;;21.97;6.83;;;2.90;99.90;;;3.67;88.30;101678.41;5072262;28;20191;-68
2020/12/19 03:57:40;;;;;;;24.27;7.27;;;2.90;99.90;;;3.65;88.22;101682.72;5072151;28;20211;-68
2020/12/19 04:00:08;;;;;;;23.10;7.83;;;2.90;99.90;;;3.61;88.18;101668.91;5072540;28;20670;-68
2020/12/19 04:02:38;;;;;;;19.70;7.07;;;2.90;99.90;;;3.58;88.14;101661.09;5072417;28;20571;-69
2020/12/19 04:05:10;;;;;;;22.63;8.90;;;2.80;99.90;;;3.56;88.02;101665.44;5072200;28;20191;-68
2020/12/19 04:07:38;;;;;;;20.53;7.50;;;2.80;99.90;;;3.53;88.21;101664.53;5072502;28;20226;-68
2020/12/19 04:10:06;;;;;;;18.07;7.07;;;2.80;99.90;;;3.49;88.52;101666.25;5071843;28;20181;-69
2020/12/19 04:12:33;;;;;;;23.17;8.27;;;2.80;99.90;;;3.48;88.37;101668.81;5070667;28;20305;-68
2020/12/19 04:14:59;;;;;;;21.67;7.00;;;2.70;99.90;;;3.48;88.86;101666.22;5072055;28;20188;-68
2020/12/19 04:17:25;;;;;;;22.52;7.43;;;2.70;99.90;;;3.50;88.72;101662.78;5071680;28;20734;-68
2020/12/19 04:19:52;;;;;;;22.13;7.00;;;2.70;99.90;;;3.55;88.70;101668.00;5071394;28;20196;-68
2020/12/19 04:22:18;;;;;;;22.42;7.35;;;2.80;99.90;;;3.60;88.52;101672.31;5071747;28;20634;-68
2020/12/19 04:24:45;;;;;;;21.17;6.77;;;2.80;99.90;;;3.60;88.35;101663.72;5071608;28;20237;-68
2020/12/19 04:27:11;;;;;;;23.27;7.68;;;2.80;99.90;;;3.59;88.50;101661.97;5071790;28;20216;-69
2020/12/19 04:29:37;;;;;;;22.20;7.73;;;2.80;99.90;;;3.61;88.36;101662.84;5071506;28;20184;-68
2020/12/19 04:32:03;;;;;;;23.13;7.90;;;2.80;99.90;;;3.61;88.47;101662.84;5071481;28;20200;-68
2020/12/19 04:34:30;;;;;;;21.25;6.88;;;2.80;99.90;;;3.63;88.45;101661.16;5071508;28;20191;-68
2020/12/19 04:36:56;;;;;;;21.77;7.90;;;2.80;99.90;;;3.59;88.13;101680.09;5071898;28;20524;-68
2020/12/19 04:39:22;;;;;;;27.03;7.30;;;2.80;99.90;;;3.60;88.39;101674.91;5071193;28;20188;-68
2020/12/19 04:41:50;;;;;;;21.70;7.57;;;2.80;99.90;;;3.65;88.41;101670.63;5071330;28;20710;-68
2020/12/19 04:44:17;;;;;;;23.73;8.00;;;2.80;99.90;;;3.70;88.20;101668.94;5071454;28;20188;-68
2020/12/19 04:46:44;;;;;;;20.53;7.03;;;2.80;99.90;;;3.71;87.93;101675.88;5071303;28;20223;-68
2020/12/19 04:49:11;;;;;;;22.98;8.30;;;2.90;99.90;;;3.71;87.93;101672.41;5070963;28;20204;-68
2020/12/19 04:51:38;;;;;;;20.67;7.03;;;2.90;99.90;;;3.70;87.84;101675.84;5071035;28;20234;-69
2020/12/19 04:54:06;;;;;;;22.17;8.60;;;2.90;99.90;;;3.66;87.71;101668.91;5070371;28;20192;-68
2020/12/19 04:56:33;;;;;;;24.20;7.60;;;2.80;99.90;;;3.67;87.71;101675.81;5071431;28;20254;-68
2020/12/19 04:59:02;;;;;;;24.48;8.07;;;2.80;99.90;;;3.63;87.69;101666.31;5069825;28;20191;-68
2020/12/19 05:01:28;;;;;;;20.47;7.43;;;2.80;99.90;;;3.58;87.62;101671.44;5071742;28;20215;-68
2020/12/19 05:03:55;;;;;;;21.93;8.10;;;2.80;99.90;;;3.52;87.57;101673.13;5071574;28;20188;-67
2020/12/19 05:06:24;;;;;;;21.20;7.60;;;2.70;99.90;;;3.46;87.50;101675.69;5071197;28;20653;-68
2020/12/19 05:08:52;;;;;;;23.75;7.35;;;2.70;99.90;;;3.40;87.49;101680.84;5069733;28;20293;-68
2020/12/19 05:11:19;;;;;;;21.70;7.37;;;2.60;99.90;;;3.37;88.00;101681.66;5071292;28;20691;-68
2020/12/19 05:13:46;;;;;;;21.90;7.43;;;2.60;99.90;;;3.34;87.91;101680.78;5069980;28;20191;-68
2020/12/19 05:16:15;;;;;;;20.63;8.13;;;2.60;99.90;;;3.31;88.10;101685.94;5071152;28;20188;-68
2020/12/19 05:18:43;;;;;;;21.60;7.83;;;2.50;99.90;;;3.29;88.15;101673.00;5070848;28;20195;-68
2020/12/19 05:21:12;;;;;;;24.07;7.87;;;2.50;99.90;;;3.29;88.18;101685.03;5070495;28;20212;-68
2020/12/19 05:23:42;;;;;;;21.50;7.47;;;2.50;99.90;;;3.32;88.42;101692.81;5071319;28;20219;-68
2020/12/19 05:26:11;;;;;;;21.40;7.37;;;2.50;99.90;;;3.30;88.18;101686.78;5071571;28;20651;-68
2020/12/19 05:28:41;;;;;;;22.23;7.90;;;2.50;99.90;;;3.32;88.33;101690.22;5070946;28;20204;-68
2020/12/19 05:31:09;;;;;;;25.57;7.67;;;2.50;99.90;;;3.32;88.15;101687.66;5071099;28;20200;-68
2020/12/19 05:33:39;;;;;;;25.93;7.53;;;2.50;99.90;;;3.32;88.31;101687.66;5071397;28;20231;-68
2020/12/19 05:36:17;;;;;;;21.80;6.60;;;2.50;99.90;;;3.29;88.36;101683.34;5070432;28;20199;-69
2020/12/19 05:38:43;;;;;;;20.53;7.03;;;2.50;99.90;;;3.32;88.44;101682.47;5070105;28;20192;-68
2020/12/19 05:41:11;;;;;;;21.67;6.87;;;2.50;99.90;;;3.34;88.21;101673.00;5071170;28;20269;-68
2020/12/19 05:43:47;;;;;;;23.00;7.13;;;2.50;99.90;;;3.29;88.23;101673.00;5070644;28;20299;-68
2020/12/19 05:46:27;;;;;;;20.17;6.63;;;2.50;99.90;;;3.30;88.32;101676.44;5086420;28;20199;-68
2020/12/19 05:48:55;;;;;;;21.73;7.23;;;2.50;99.90;;;3.28;88.01;101681.59;5069750;28;20207;-68
2020/12/19 05:51:22;;;;;;;18.92;6.53;;;2.50;99.90;;;3.26;88.31;101682.44;5074799;28;20215;-69
2020/12/19 05:53:52;;;;;;;21.37;6.53;;;2.50;99.90;;;3.29;88.52;101682.47;5073470;28;20197;-68
2020/12/19 05:56:20;;;;;;;21.50;7.32;;;2.50;99.90;;;3.33;88.74;101679.06;5074561;28;20200;-68
2020/12/19 05:58:47;;;;;;;16.52;6.43;;;2.50;99.90;;;3.39;88.45;101689.44;5073397;28;20290;-68
2020/12/19 06:01:16;;;;;;;20.63;6.27;;;2.60;99.90;;;3.38;88.49;101685.13;5075216;28;20238;-68
2020/12/19 06:03:47;;;;;;;20.63;6.70;;;2.60;99.90;;;3.37;88.48;101675.63;5075104;28;20234;-68
2020/12/19 06:06:16;;;;;;;20.87;6.80;;;2.60;99.90;;;3.32;88.16;101683.34;5075667;28;20195;-68
2020/12/19 06:08:42;;;;;;;23.73;7.22;;;2.50;99.90;;;3.31;88.24;101680.75;5074401;28;20574;-68
2020/12/19 06:11:21;;;;;;;19.87;7.07;;;2.50;99.90;;;3.28;88.36;101679.00;5075834;28;20211;-68
2020/12/19 06:13:53;;;;;;;23.43;7.20;;;2.50;99.90;;;3.29;88.50;101679.88;5076846;28;20181;-68
2020/12/19 06:16:22;;;;;;;25.35;8.13;;;2.50;99.90;;;3.29;88.77;101674.69;5075325;28;20189;-68
2020/12/19 06:19:13;;;;;;;21.40;7.33;;;2.50;99.90;;;3.30;88.67;101674.72;5074646;28;20249;-69
2020/12/19 06:21:48;;;;;;;21.13;6.70;;;2.50;99.90;;;3.33;88.78;101679.06;5074045;28;20258;-68
2020/12/19 06:24:47;;;;;;;25.80;7.87;;;2.50;99.90;;;3.34;88.68;101685.94;5054926;28;20242;-68
2020/12/19 06:27:42;;;;;;;20.93;6.47;;;2.50;99.90;;;3.32;88.35;101682.47;5073544;28;20211;-68
2020/12/19 06:30:29;;;;;;;20.20;6.13;;;2.50;99.90;;;3.28;88.61;101686.75;5073691;28;20191;-68
2020/12/19 06:33:16;;;;;;;19.40;6.50;;;2.50;99.90;;;3.29;88.64;101682.47;5073990;28;20188;-68
2020/12/19 06:35:49;;;;;;;20.93;5.80;;;2.50;99.90;;;3.29;88.70;101682.47;5074003;28;20631;-68
2020/12/19 06:38:42;;;;;;;25.23;7.00;;;2.50;99.90;;;3.32;88.77;101677.31;5073686;28;20185;-68
2020/12/19 06:41:10;;;;;;;17.65;5.90;;;2.50;99.90;;;3.31;88.49;101675.59;5073926;28;20216;-68
2020/12/19 06:43:36;;;;;;;22.33;7.20;;;2.50;99.90;;;3.27;88.45;101668.66;5073584;28;20830;-68
2020/12/19 06:46:03;;;;;;;20.48;6.53;;;2.50;99.90;;;3.27;88.71;101666.06;5073699;28;20548;-68
2020/12/19 06:48:32;;;;;;;21.20;7.00;;;2.50;99.90;;;3.25;88.78;101667.78;5073299;28;20664;-68
2020/12/19 06:51:01;;;;;;;23.30;6.97;;;2.50;99.90;;;3.25;89.05;101663.47;5073100;28;20208;-68
2020/12/19 06:53:29;;;;;;;22.27;7.10;;;2.50;99.90;;;3.27;89.23;101668.66;5073588;28;20188;-68
2020/12/19 06:55:57;;;;;;;19.65;6.22;;;2.50;99.90;;;3.27;89.09;101674.69;5072351;28;20325;-68
2020/12/19 06:58:30;;;;;;;20.93;6.63;;;2.50;99.90;;;3.26;89.20;101666.94;5073323;28;20199;-68
2020/12/19 07:00:56;;;;;;;18.60;6.60;;;2.50;99.90;;;3.26;89.08;101672.97;5073586;28;20594;-67
2020/12/19 07:03:41;;;;;;;21.83;7.07;;;2.50;99.90;;;3.27;88.89;101666.06;5071969;28;20195;-67
2020/12/19 07:06:12;;;;;;;18.73;6.67;;;2.50;99.90;;;3.30;89.15;101668.69;5088181;28;20254;-68
2020/12/19 07:08:39;;;;;;;22.40;7.33;;;2.50;99.90;;;3.29;88.92;101666.94;5072964;28;20668;-68
2020/12/19 07:11:13;;;;;;;22.60;7.83;;;2.50;99.90;;;3.29;88.90;101669.53;5073159;28;20199;-68
2020/12/19 07:13:57;;;;;;;20.33;7.23;;;2.50;99.90;;;3.28;89.27;101665.22;5073498;28;20181;-68
2020/12/19 07:16:44;;;;;;;25.97;7.20;;;2.50;99.90;;;3.29;89.10;101666.94;5072114;28;20180;-68
2020/12/19 07:19:21;;;;;;;21.30;6.53;;;2.50;99.90;;;3.29;89.24;101656.59;5064859;28;20282;-68
2020/12/19 07:21:48;;;;;;;18.70;7.07;;;2.50;99.90;;;3.31;89.25;101665.25;5074175;28;20765;-68
2020/12/19 07:24:14;;;;;;;22.05;7.20;;;2.60;99.90;;;3.33;89.29;101660.94;5072086;28;20237;-68
2020/12/19 07:26:41;;;;;;;25.50;7.70;;;2.60;99.90;;;3.32;89.18;101660.06;5072664;28;20188;-68
2020/12/19 07:29:17;;;;;;;21.93;6.30;;;2.60;99.90;;;3.34;89.16;101660.97;5073154;28;20208;-68
2020/12/19 07:31:52;;;;;;;20.90;7.10;;;2.60;99.90;;;3.35;89.07;101652.34;5071579;28;20757;-67
2020/12/19 07:34:20;;;;;;;22.33;7.33;;;2.60;99.90;;;3.37;89.13;101649.75;5071514;28;20608;-68
2020/12/19 07:36:49;;;;;;;21.00;6.30;;;2.60;99.90;;;3.36;88.92;101655.78;5088462;28;20203;-68
2020/12/19 07:39:17;;;;;;;23.60;7.70;;;2.60;99.90;;;3.32;89.19;101652.31;5072276;28;20191;-68
2020/12/19 07:41:59;;;;;;;21.83;7.60;;;2.60;99.90;;;3.36;89.16;101653.22;5072512;28;20208;-67
2020/12/19 07:44:25;;;;;;;20.17;7.10;;;2.60;99.90;;;3.35;89.14;101642.00;5072689;28;20188;-68
2020/12/19 07:47:00;;;;;;;21.33;7.47;;;2.60;99.90;;;3.36;89.16;101641.16;5068361;28;20184;-69
2020/12/19 07:49:35;;;;;;;23.87;7.50;;;2.60;99.90;;;3.37;89.30;101635.13;5071974;28;20314;-68
2020/12/19 07:52:23;;;;;;;25.37;8.27;;;2.70;99.90;;;3.38;89.35;101639.41;5072189;28;20282;-68
2020/12/19 07:55:01;;;;;;;23.63;7.90;;;2.70;99.90;;;3.38;89.45;101641.16;5068101;28;20680;-68
2020/12/19 07:57:30;;;;;;;22.50;7.07;;;2.70;99.90;;;3.36;89.17;101648.03;5071695;28;20188;-68
2020/12/19 07:59:58;;;;;;;20.73;7.47;;;2.70;99.90;;;3.37;89.57;101649.75;5071995;28;20192;-69
2020/12/19 08:02:25;;;;;;;24.53;7.63;;;2.70;99.90;;;3.43;89.45;101652.41;5070783;28;20207;-68
2020/12/19 08:04:55;;;;;;;24.03;7.73;;;2.70;99.90;;;3.52;89.43;101649.84;5071331;28;20196;-67
2020/12/19 08:07:24;;;;;;;19.47;7.33;;;2.70;99.90;;;3.60;89.41;101649.03;5071978;28;20192;-69
2020/12/19 08:09:59;;;;;;;22.67;8.13;;;2.90;99.90;;;3.64;89.21;101655.09;5071971;28;20218;-69
2020/12/19 08:12:27;;;;;;;20.63;7.17;;;2.90;99.90;;;3.72;89.29;101653.41;5070924;28;20230;-68
2020/12/19 08:14:55;;;;;;;19.40;6.05;;;3.00;99.90;;;3.82;89.34;101655.19;5071299;28;20192;-68
2020/12/19 08:17:23;;;;;;;24.23;7.77;;;3.10;99.90;;;3.87;88.85;101653.50;5071619;28;20185;-69
2020/12/19 08:19:54;;;;;;;22.50;8.13;;;3.10;99.90;;;3.88;88.69;101651.78;5071862;28;20253;-69
2020/12/19 08:22:21;;;;;;;23.60;7.57;;;3.20;99.90;;;3.88;88.67;101656.09;5071862;28;20214;-70
2020/12/19 08:24:49;;;;;;;20.77;7.65;;;3.20;99.90;;;3.90;88.73;101669.06;5072323;28;20211;-68
2020/12/19 08:27:43;;;;;;;22.33;7.68;;;3.20;99.90;;;3.97;88.80;101699.28;5071311;28;20600;-68
2020/12/19 08:30:28;;;;;;;19.83;7.78;;;3.20;99.90;;;4.04;88.70;101695.00;5071546;28;20538;-68
2020/12/19 08:32:58;;;;;;;24.20;8.03;;;3.30;99.90;;;4.13;88.35;101701.09;5071938;28;20194;-68
2020/12/19 08:35:27;;;;;;;27.10;8.93;;;3.40;99.90;;;4.21;88.21;101695.94;5071745;28;20180;-68
2020/12/19 08:38:04;;;;;;;23.67;8.97;;;3.40;99.90;;;4.24;87.99;101693.34;5071738;28;20185;-69
2020/12/19 08:40:37;;;;;;;25.02;7.93;;;3.50;99.90;;;4.26;87.82;101684.75;5070144;28;20212;-68
2020/12/19 08:43:05;;;;;;;19.23;7.43;;;3.50;99.90;;;4.32;87.55;101692.53;5071527;28;20665;-68
2020/12/19 08:45:34;;;;;;;21.55;7.78;;;3.50;99.90;;;4.34;87.01;101701.19;5071485;28;20177;-68
2020/12/19 08:48:04;;;;;;;20.02;7.60;;;3.60;99.90;;;4.32;86.92;101679.56;5071159;28;20211;-68
2020/12/19 08:50:36;;;;;;;23.00;7.55;;;3.50;99.90;;;4.28;86.84;101672.66;5070039;28;20208;-68
2020/12/19 08:53:12;;;;;;;24.60;8.47;;;3.50;99.90;;;4.26;86.76;101678.69;5070063;28;20246;-68
2020/12/19 08:55:40;;;;;;;20.60;7.93;;;3.50;99.90;;;4.29;87.14;101689.06;5071218;28;20199;-68
2020/12/19 08:58:06;;;;;;;20.85;7.93;;;3.60;99.90;;;4.30;87.00;101663.19;5070879;28;20184;-67
2020/12/19 09:00:39;;;;;;;22.42;7.53;;;3.60;99.90;;;4.32;86.90;101683.91;5071204;28;20257;-68
2020/12/19 09:03:09;;;;;;;22.23;7.97;;;3.60;99.90;;;4.37;87.17;101682.19;5069902;28;20314;-69
2020/12/19 09:05:42;;;;;;;20.48;8.00;;;3.60;99.90;;;4.46;87.09;101677.91;5071250;28;20191;-68
2020/12/19 09:08:09;;;;;;;22.98;8.88;;;3.70;99.90;;;4.48;86.66;101686.56;5070952;28;20289;-68
2020/12/19 09:10:38;;;;;;;24.90;8.85;;;3.70;99.90;;;4.48;86.65;101681.38;5071257;28;20204;-69
2020/12/19 09:13:13;;;;;;;21.50;7.93;;;3.80;99.90;;;4.50;86.84;101684.84;5071365;28;20188;-69
2020/12/19 09:15:43;;;;;;;20.50;7.72;;;3.80;99.90;;;4.51;86.37;101689.16;5070281;28;20207;-68
2020/12/19 09:18:19;;;;;;;19.70;7.57;;;3.80;99.90;;;4.51;86.36;101686.56;5062696;28;20184;-68
2020/12/19 09:20:51;;;;;;;20.88;8.88;;;3.80;99.90;;;4.55;86.47;101672.75;5071223;28;20579;-68
2020/12/19 09:23:17;;;;;;;23.77;8.13;;;3.80;99.90;;;4.58;86.67;101677.06;5070215;28;20649;-68
2020/12/19 09:25:43;;;;;;;21.58;8.60;;;3.90;99.90;;;4.58;86.37;101672.75;5070764;28;20601;-68
2020/12/19 09:28:09;;;;;;;23.90;8.10;;;3.90;99.90;;;4.62;86.47;101678.81;5072423;28;20298;-69
2020/12/19 09:30:36;;;;;;;21.23;7.78;;;3.90;99.90;;;4.63;86.37;101672.75;5075070;28;20212;-68
2020/12/19 09:33:03;;;;;;;25.67;8.50;;;3.90;99.90;;;4.65;85.87;101674.50;5075036;28;20184;-68
2020/12/19 09:35:30;;;;;;;21.92;8.10;;;4.00;99.90;;;4.67;86.06;101672.75;5075058;28;20222;-68
2020/12/19 09:37:56;;;;;;;19.20;7.18;;;4.00;99.90;;;4.71;86.10;101674.50;5073639;28;20521;-68
2020/12/19 09:40:23;;;;;;;21.13;8.20;;;4.10;99.90;;;4.74;86.24;101660.66;5074490;28;20199;-68
2020/12/19 09:42:50;;;;;;;26.85;8.68;;;4.10;99.90;;;4.77;85.93;101658.94;5074748;28;20180;-68
2020/12/19 09:45:16;;;;;;;20.23;7.95;;;4.20;99.90;;;4.81;86.21;101660.69;5074853;28;20195;-69
2020/12/19 09:47:43;;;;;;;19.27;8.05;;;4.20;99.90;;;4.85;85.91;101658.97;5074729;28;20212;-68
2020/12/19 09:50:11;;;;;;;18.90;7.72;;;4.20;99.90;;;4.90;85.81;101649.47;5074615;28;20184;-68
2020/12/19 09:52:38;;;;;;;20.10;7.63;;;4.30;99.90;;;4.96;85.57;101649.47;5074736;28;20188;-68
2020/12/19 09:55:07;;;;;;;21.00;7.32;;;4.30;99.90;;;5.01;85.46;101643.41;5074412;28;20218;-69
2020/12/19 09:57:33;;;;;;;23.67;8.10;;;4.30;99.90;;;5.04;85.19;101640.81;5090280;28;20199;-68
2020/12/19 10:00:00;;;;;;;22.67;8.15;;;4.40;99.90;;;5.05;85.05;101642.56;5073182;28;20184;-68
2020/12/19 10:02:27;;;;;;;18.63;7.53;;;4.50;99.90;;;5.08;84.98;101642.56;5073106;28;20215;-68
2020/12/19 10:04:54;;;;;;;18.77;8.10;;;4.50;99.90;;;5.11;84.87;101645.16;5074419;28;20196;-68
2020/12/19 10:07:21;;;;;;;19.85;7.82;;;4.50;99.90;;;5.19;84.97;101652.06;5074533;28;20180;-69
2020/12/19 10:09:47;;;;;;;19.20;7.88;;;4.50;99.90;;;5.26;84.80;101653.81;5074580;28;20574;-68
2020/12/19 10:12:14;;;;;;;20.83;7.65;;;4.60;99.90;;;5.29;84.54;101638.22;5074509;28;20703;-69
2020/12/19 10:14:40;;;;;;;21.75;8.38;;;4.70;99.90;;;5.34;84.45;101633.91;5074243;28;20195;-68
2020/12/19 10:17:06;;;;;;;23.83;8.25;;;4.70;99.90;;;5.38;84.49;101625.22;5074646;28;20187;-68
2020/12/19 10:19:33;;;;;;;21.60;8.07;;;4.70;99.90;;;5.41;84.44;101638.22;5074312;28;20192;-69
2020/12/19 10:21:59;;;;;;;19.75;7.50;;;4.80;99.90;;;5.44;84.08;101640.78;5073027;28;20223;-68
2020/12/19 10:24:26;;;;;;;20.58;8.05;;;4.80;99.90;;;5.47;84.24;101636.47;5073253;28;20192;-68
2020/12/19 10:26:53;;;;;;;19.38;7.78;;;4.80;99.90;;;5.50;83.93;101643.38;5074426;28;20249;-69